createdAt,value
2023-03-29T00:01:11.455Z,98303.59
2023-03-29T00:04:21.803Z,98308.16
2023-03-29T00:07:10.628Z,98301.69
2023-03-29T00:09:59.432Z,98296.84
2023-03-29T00:12:48.510Z,98293.34
2023-03-29T00:15:37.288Z,98290.94
2023-03-29T00:18:26.564Z,98299.78
2023-03-29T00:21:17.025Z,98295.00
2023-03-29T00:24:06.313Z,98286.66
2023-03-29T00:26:55.316Z,98281.56
2023-03-29T00:29:44.156Z,98290.41
2023-03-29T00:32:34.301Z,98287.16
2023-03-29T00:35:23.181Z,98289.63
2023-03-29T00:38:13.557Z,98280.47
2023-03-29T00:41:03.893Z,98278.63
2023-03-29T00:43:57.915Z,98271.88
2023-03-29T00:46:46.892Z,98267.06
2023-03-29T00:49:36.152Z,98264.38
2023-03-29T00:52:30.438Z,98276.19
2023-03-29T00:55:24.917Z,98279.44
2023-03-29T00:58:23.409Z,98283.22
2023-03-29T01:01:19.347Z,98278.38
2023-03-29T01:04:18.516Z,98284.59
2023-03-29T01:07:14.012Z,98288.63
2023-03-29T01:10:12.051Z,98296.19
2023-03-29T01:13:10.427Z,98292.13
2023-03-29T01:16:02.786Z,98291.06
2023-03-29T01:18:54.335Z,98287.59
2023-03-29T01:21:51.527Z,98281.41
2023-03-29T01:24:57.736Z,98273.59
2023-03-29T01:27:57.301Z,98265.75
2023-03-29T01:30:53.060Z,98261.44
2023-03-29T01:33:50.949Z,98241.28
2023-03-29T01:36:50.341Z,98236.72
2023-03-29T01:39:39.363Z,98223.00
2023-03-29T01:42:46.631Z,98216.28
2023-03-29T01:45:44.547Z,98205.25
2023-03-29T01:48:41.169Z,98203.91
2023-03-29T01:51:38.474Z,98194.50
2023-03-29T01:54:36.665Z,98192.63
2023-03-29T01:57:28.137Z,98188.84
2023-03-29T02:00:22.473Z,98188.03
2023-03-29T02:03:17.532Z,98199.34
2023-03-29T02:06:07.587Z,98196.09
2023-03-29T02:08:57.317Z,98193.97
2023-03-29T02:11:47.443Z,98191.25
2023-03-29T02:14:36.455Z,98181.06
2023-03-29T02:17:29.825Z,98177.81
2023-03-29T02:20:27.122Z,98178.88
2023-03-29T02:23:23.366Z,98171.34
2023-03-29T02:26:14.714Z,98165.97
2023-03-29T02:29:03.866Z,98155.72
2023-03-29T02:32:00.183Z,98152.25
2023-03-29T02:34:57.966Z,98151.69
2023-03-29T02:37:52.337Z,98148.78
2023-03-29T02:40:43.337Z,98152.25
2023-03-29T02:43:34.339Z,98157.91
2023-03-29T02:46:24.449Z,98155.47
2023-03-29T02:49:14.094Z,98150.63
2023-03-29T02:52:12.301Z,98157.06
2023-03-29T02:55:06.363Z,98151.16
2023-03-29T02:57:55.356Z,98156.28
2023-03-29T03:00:49.212Z,98151.72
2023-03-29T03:03:38.145Z,98150.09
2023-03-29T03:06:27.326Z,98153.06
2023-03-29T03:09:16.748Z,98148.75
2023-03-29T03:12:09.843Z,98142.03
2023-03-29T03:14:58.962Z,98155.16
2023-03-29T03:17:49.365Z,98151.66
2023-03-29T03:20:40.148Z,98146.28
2023-03-29T03:23:30.448Z,98152.72
2023-03-29T03:26:19.672Z,98154.56
2023-03-29T03:29:10.098Z,98159.31
2023-03-29T03:32:20.848Z,98162.59
2023-03-29T03:35:16.298Z,98147.78
2023-03-29T03:38:05.855Z,98134.06
2023-03-29T03:40:58.221Z,98150.19
2023-03-29T03:43:48.994Z,98142.63
2023-03-29T03:46:39.728Z,98126.53
2023-03-29T03:49:29.094Z,98134.56
2023-03-29T03:52:18.352Z,98129.16
2023-03-29T03:55:08.297Z,98133.19
2023-03-29T03:58:12.888Z,98126.19
2023-03-29T04:01:02.454Z,98121.59
2023-03-29T04:04:03.056Z,98129.09
2023-03-29T04:06:52.788Z,98121.34
2023-03-29T04:10:00.456Z,98117.56
2023-03-29T04:13:02.896Z,98126.91
2023-03-29T04:15:54.658Z,98125.28
2023-03-29T04:18:44.048Z,98126.13
2023-03-29T04:21:34.727Z,98119.16
2023-03-29T04:24:25.210Z,98115.41
2023-03-29T04:27:34.786Z,98102.88
2023-03-29T04:30:28.099Z,98113.56
2023-03-29T04:33:37.507Z,98114.41
2023-03-29T04:36:26.848Z,98100.69
2023-03-29T04:39:18.025Z,98099.91
2023-03-29T04:42:11.571Z,98102.25
2023-03-29T04:45:00.997Z,98096.69
2023-03-29T04:48:07.330Z,98092.06
2023-03-29T04:50:57.555Z,98089.97
2023-03-29T04:53:46.574Z,98087.25
2023-03-29T04:56:37.969Z,98093.66
2023-03-29T04:59:44.275Z,98101.44
2023-03-29T05:03:01.532Z,98101.19
2023-03-29T05:05:53.839Z,98095.56
2023-03-29T05:08:44.657Z,98095.56
2023-03-29T05:11:48.003Z,98106.56
2023-03-29T05:14:37.185Z,98095.88
2023-03-29T05:17:27.659Z,98093.41
2023-03-29T05:20:22.222Z,98089.16
2023-03-29T05:23:12.550Z,98087.25
2023-03-29T05:26:39.996Z,98090.78
2023-03-29T05:29:32.756Z,98079.78
2023-03-29T05:32:57.073Z,98078.19
2023-03-29T05:35:48.056Z,98084.38
2023-03-29T05:38:38.203Z,98085.44
2023-03-29T05:41:27.612Z,98081.97
2023-03-29T05:44:37.858Z,98081.16
2023-03-29T05:47:36.140Z,98079.56
2023-03-29T05:50:25.188Z,98069.06
2023-03-29T05:53:17.422Z,98063.16
2023-03-29T05:56:11.157Z,98067.19
2023-03-29T05:59:02.043Z,98065.09
2023-03-29T06:01:53.022Z,98062.41
2023-03-29T06:04:43.483Z,98057.31
2023-03-29T06:07:41.313Z,98057.31
2023-03-29T06:10:51.890Z,98059.97
2023-03-29T06:14:14.146Z,98060.81
2023-03-29T06:17:10.775Z,98053.28
2023-03-29T06:19:59.745Z,98053.53
2023-03-29T06:22:51.066Z,98052.72
2023-03-29T06:25:40.542Z,98046.25
2023-03-29T06:28:29.837Z,98047.34
2023-03-29T06:31:19.867Z,98026.56
2023-03-29T06:34:13.737Z,98026.09
2023-03-29T06:37:02.611Z,98032.69
2023-03-29T06:39:53.479Z,98044.22
2023-03-29T06:43:02.757Z,98054.09
2023-03-29T06:46:04.231Z,98055.50
2023-03-29T06:49:05.141Z,98054.91
2023-03-29T06:52:01.208Z,98059.75
2023-03-29T06:54:50.455Z,98055.91
2023-03-29T06:57:40.566Z,98060.19
2023-03-29T07:00:29.789Z,98056.06
2023-03-29T07:03:27.923Z,98052.19
2023-03-29T07:06:20.320Z,98056.47
2023-03-29T07:09:12.900Z,98056.50
2023-03-29T07:12:27.503Z,98052.44
2023-03-29T07:15:22.418Z,98049.69
2023-03-29T07:18:37.787Z,98053.63
2023-03-29T07:21:26.676Z,98048.50
2023-03-29T07:24:17.424Z,98048.75
2023-03-29T07:27:06.472Z,98056.28
2023-03-29T07:29:56.966Z,98064.06
2023-03-29T07:32:48.175Z,98062.00
2023-03-29T07:35:48.512Z,98076.31
2023-03-29T07:38:38.777Z,98078.66
2023-03-29T07:41:35.107Z,98077.97
2023-03-29T07:44:34.193Z,98086.84
2023-03-29T07:47:23.201Z,98074.91
2023-03-29T07:50:13.509Z,98076.00
2023-03-29T07:53:04.550Z,98074.75
2023-03-29T07:55:55.173Z,98072.38
2023-03-29T07:59:11.691Z,98077.66
2023-03-29T08:02:03.008Z,98069.38
2023-03-29T08:04:59.711Z,98060.88
2023-03-29T08:07:54.304Z,98071.16
2023-03-29T08:10:57.366Z,98059.69
2023-03-29T08:14:01.115Z,98066.50
2023-03-29T08:17:13.725Z,98066.66
2023-03-29T08:20:11.923Z,98063.28
2023-03-29T08:23:03.053Z,98058.88
2023-03-29T08:26:13.802Z,98057.03
2023-03-29T08:29:02.765Z,98062.09
2023-03-29T08:31:52.026Z,98066.50
2023-03-29T08:34:42.589Z,98055.19
2023-03-29T08:37:40.762Z,98058.81
2023-03-29T08:40:31.342Z,98054.13
2023-03-29T08:43:53.698Z,98054.19
2023-03-29T08:46:54.719Z,98055.41
2023-03-29T08:49:57.440Z,98050.53
2023-03-29T08:53:01.657Z,98053.97
2023-03-29T08:56:18.465Z,98052.03
2023-03-29T08:59:34.740Z,98047.25
2023-03-29T09:02:32.840Z,98041.50
2023-03-29T09:05:34.467Z,98035.81
2023-03-29T09:08:47.715Z,98038.63
2023-03-29T09:12:00.051Z,98030.47
2023-03-29T09:15:02.920Z,98046.84
2023-03-29T09:18:05.925Z,98042.75
2023-03-29T09:21:05.590Z,98052.75
2023-03-29T09:24:25.522Z,98049.25
2023-03-29T09:27:27.678Z,98046.31
2023-03-29T09:30:41.716Z,98040.75
2023-03-29T09:33:42.860Z,98035.13
2023-03-29T09:36:52.812Z,98032.41
2023-03-29T09:39:42.583Z,98024.16
2023-03-29T09:42:35.655Z,98020.44
2023-03-29T09:45:25.894Z,98018.22
2023-03-29T09:48:19.712Z,98017.81
2023-03-29T09:51:20.673Z,98008.22
2023-03-29T09:54:13.510Z,98013.06
2023-03-29T09:57:22.530Z,98008.88
2023-03-29T10:00:14.601Z,98013.66
2023-03-29T10:03:03.716Z,98004.31
2023-03-29T10:06:09.688Z,98014.59
2023-03-29T10:08:59.822Z,98007.19
2023-03-29T10:12:02.259Z,98001.16
2023-03-29T10:14:54.966Z,98003.31
2023-03-29T10:17:46.128Z,97993.03
2023-03-29T10:20:38.507Z,97999.09
2023-03-29T10:23:33.610Z,98003.88
2023-03-29T10:26:29.339Z,97989.94
2023-03-29T10:29:19.908Z,97989.31
2023-03-29T10:32:18.442Z,97990.25
2023-03-29T10:35:19.157Z,97989.13
2023-03-29T10:38:14.961Z,97985.41
2023-03-29T10:41:11.732Z,97990.59
2023-03-29T10:44:02.746Z,97992.03
2023-03-29T10:46:53.312Z,97991.09
2023-03-29T10:49:47.035Z,97993.75
2023-03-29T10:52:36.641Z,97987.03
2023-03-29T10:55:37.979Z,97988.25
2023-03-29T10:58:42.586Z,97984.25
2023-03-29T11:01:43.797Z,97982.94
2023-03-29T11:04:45.875Z,97980.09
2023-03-29T11:07:39.819Z,97974.00
2023-03-29T11:10:43.263Z,97979.72
2023-03-29T11:13:46.400Z,97972.81
2023-03-29T11:16:46.909Z,97962.81
2023-03-29T11:20:02.438Z,97954.22
2023-03-29T11:23:08.339Z,97955.38
2023-03-29T11:26:14.029Z,97943.59
2023-03-29T11:29:12.899Z,97943.28
2023-03-29T11:32:11.962Z,97947.66
2023-03-29T11:35:24.270Z,97947.00
2023-03-29T11:38:30.467Z,97942.03
2023-03-29T11:41:26.981Z,97942.97
2023-03-29T11:44:22.217Z,97940.06
2023-03-29T11:47:19.383Z,97937.56
2023-03-29T11:50:20.905Z,97935.13
2023-03-29T11:53:16.123Z,97936.97
2023-03-29T11:56:13.557Z,97938.84
2023-03-29T11:59:11.873Z,97942.75
2023-03-29T12:02:13.328Z,97938.50
2023-03-29T12:05:14.316Z,97939.53
2023-03-29T12:08:09.681Z,97939.47
2023-03-29T12:11:09.491Z,97937.94
2023-03-29T12:14:06.493Z,97938.31
2023-03-29T12:17:02.652Z,97933.84
2023-03-29T12:20:05.461Z,97932.97
2023-03-29T12:22:59.104Z,97932.50
2023-03-29T12:26:02.340Z,97928.19
2023-03-29T12:29:18.855Z,97925.22
2023-03-29T12:32:40.786Z,97924.66
2023-03-29T12:36:13.414Z,97924.13
2023-03-29T12:39:35.015Z,97925.44
2023-03-29T12:42:52.963Z,97928.75
2023-03-29T12:45:57.773Z,97933.22
2023-03-29T12:48:52.079Z,97930.56
2023-03-29T12:51:43.964Z,97921.09
2023-03-29T12:54:35.101Z,97920.84
2023-03-29T12:57:30.027Z,97909.25
2023-03-29T13:00:27.154Z,97915.31
2023-03-29T13:03:31.114Z,97924.56
2023-03-29T13:06:34.008Z,97917.03
2023-03-29T13:09:29.476Z,97931.75
2023-03-29T13:12:28.553Z,97925.84
2023-03-29T13:15:26.590Z,97916.13
2023-03-29T13:18:36.786Z,97910.66
2023-03-29T13:21:41.972Z,97909.69
2023-03-29T13:25:04.950Z,97900.31
2023-03-29T13:28:05.689Z,97904.03
2023-03-29T13:31:03.547Z,97904.41
2023-03-29T13:34:07.110Z,97895.88
2023-03-29T13:37:14.131Z,97898.63
2023-03-29T13:40:05.398Z,97891.69
2023-03-29T13:43:01.989Z,97887.56
2023-03-29T13:46:17.884Z,97877.91
2023-03-29T13:49:16.648Z,97887.28
2023-03-29T13:52:16.560Z,97872.00
2023-03-29T13:55:15.821Z,97873.31
2023-03-29T13:58:14.553Z,97871.94
2023-03-29T14:01:13.008Z,97864.78
2023-03-29T14:04:05.902Z,97865.31
2023-03-29T14:06:57.744Z,97868.50
2023-03-29T14:09:51.641Z,97858.38
2023-03-29T14:12:42.085Z,97844.97
2023-03-29T14:15:45.633Z,97850.09
2023-03-29T14:18:38.955Z,97842.94
2023-03-29T14:21:28.114Z,97839.81
2023-03-29T14:24:22.953Z,97839.84
2023-03-29T14:27:14.175Z,97840.81
2023-03-29T14:30:03.014Z,97847.97
2023-03-29T14:32:53.389Z,97849.41
2023-03-29T14:35:42.776Z,97852.03
2023-03-29T14:38:33.337Z,97846.47
2023-03-29T14:41:24.482Z,97857.41
2023-03-29T14:44:15.662Z,97850.63
2023-03-29T14:47:05.170Z,97849.88
2023-03-29T14:49:58.865Z,97855.75
2023-03-29T14:52:52.176Z,97859.09
2023-03-29T14:55:42.488Z,97847.53
2023-03-29T14:58:35.513Z,97851.59
2023-03-29T15:01:27.906Z,97850.81
2023-03-29T15:04:16.834Z,97842.88
2023-03-29T15:07:08.370Z,97846.41
2023-03-29T15:09:59.988Z,97841.63
2023-03-29T15:12:50.296Z,97849.88
2023-03-29T15:15:41.392Z,97845.41
2023-03-29T15:18:38.631Z,97840.41
2023-03-29T15:21:33.752Z,97842.69
2023-03-29T15:24:29.786Z,97836.91
2023-03-29T15:27:21.103Z,97824.81
2023-03-29T15:30:16.932Z,97819.50
2023-03-29T15:33:25.998Z,97819.34
2023-03-29T15:36:16.459Z,97808.91
2023-03-29T15:39:05.401Z,97806.47
2023-03-29T15:41:58.199Z,97808.09
2023-03-29T15:44:47.197Z,97797.22
2023-03-29T15:47:36.309Z,97789.81
2023-03-29T15:50:25.247Z,97782.63
2023-03-29T15:53:16.994Z,97791.41
2023-03-29T15:56:11.414Z,97795.19
2023-03-29T15:59:02.126Z,97796.00
2023-03-29T16:01:51.741Z,97795.72
2023-03-29T16:04:40.837Z,97784.78
2023-03-29T16:07:30.181Z,97789.78
2023-03-29T16:10:19.120Z,97792.69
2023-03-29T16:13:08.764Z,97777.19
2023-03-29T16:15:59.285Z,97772.25
2023-03-29T16:18:48.498Z,97775.41
2023-03-29T16:21:37.851Z,97783.00
2023-03-29T16:24:29.323Z,97776.69
2023-03-29T16:27:18.934Z,97776.56
2023-03-29T16:30:10.658Z,97778.28
2023-03-29T16:33:06.113Z,97781.00
2023-03-29T16:35:55.224Z,97776.28
2023-03-29T16:38:44.643Z,97769.50
2023-03-29T16:41:33.903Z,97785.16
2023-03-29T16:44:25.698Z,97785.19
2023-03-29T16:47:14.607Z,97788.97
2023-03-29T16:50:05.683Z,97784.31
2023-03-29T16:52:54.726Z,97775.19
2023-03-29T16:55:43.970Z,97775.69
2023-03-29T16:58:32.978Z,97766.66
2023-03-29T17:01:22.767Z,97766.03
2023-03-29T17:04:11.825Z,97776.63
2023-03-29T17:07:02.258Z,97768.03
2023-03-29T17:09:51.725Z,97768.34
2023-03-29T17:12:41.219Z,97761.31
2023-03-29T17:15:30.371Z,97759.25
2023-03-29T17:18:23.489Z,97766.44
2023-03-29T17:21:12.544Z,97774.91
2023-03-29T17:24:02.714Z,97773.97
2023-03-29T17:26:51.896Z,97775.72
2023-03-29T17:29:40.999Z,97774.28
2023-03-29T17:32:30.035Z,97771.41
2023-03-29T17:35:19.214Z,97772.69
2023-03-29T17:38:08.114Z,97770.09
2023-03-29T17:40:58.424Z,97773.28
2023-03-29T17:43:47.844Z,97775.19
2023-03-29T17:46:37.901Z,97779.91
2023-03-29T17:49:26.934Z,97776.25
2023-03-29T17:52:15.957Z,97781.44
2023-03-29T17:55:05.982Z,97780.97
2023-03-29T17:57:56.311Z,97788.72
2023-03-29T18:00:45.361Z,97782.81
2023-03-29T18:03:34.353Z,97784.06
2023-03-29T18:06:23.252Z,97786.19
2023-03-29T18:09:13.254Z,97787.78
2023-03-29T18:12:02.349Z,97786.69
2023-03-29T18:14:53.265Z,97793.03
2023-03-29T18:17:42.473Z,97791.25
2023-03-29T18:20:32.900Z,97789.59
2023-03-29T18:23:21.831Z,97781.59
2023-03-29T18:26:10.915Z,97795.00
2023-03-29T18:29:00.002Z,97790.84
2023-03-29T18:31:50.762Z,97790.34
2023-03-29T18:34:40.350Z,97796.91
2023-03-29T18:37:29.316Z,97791.59
2023-03-29T18:40:20.493Z,97797.31
2023-03-29T18:43:09.663Z,97805.41
2023-03-29T18:45:59.030Z,97797.75
2023-03-29T18:48:49.387Z,97794.28
2023-03-29T18:51:38.321Z,97793.41
2023-03-29T18:54:27.610Z,97797.38
2023-03-29T18:57:16.643Z,97797.38
2023-03-29T19:00:11.947Z,97795.41
2023-03-29T19:03:02.113Z,97794.91
2023-03-29T19:05:55.447Z,97797.13
2023-03-29T19:08:44.757Z,97797.63
2023-03-29T19:11:35.904Z,97796.69
2023-03-29T19:14:25.457Z,97788.38
2023-03-29T19:17:14.413Z,97789.03
2023-03-29T19:20:04.827Z,97790.19
2023-03-29T19:22:55.456Z,97791.69
2023-03-29T19:25:44.559Z,97786.97
2023-03-29T19:28:34.956Z,97782.41
2023-03-29T19:31:24.207Z,97794.22
2023-03-29T19:34:13.268Z,97795.75
2023-03-29T19:37:02.479Z,97802.06
2023-03-29T19:39:54.585Z,97806.63
2023-03-29T19:42:43.470Z,97828.50
2023-03-29T19:45:32.599Z,97813.66
2023-03-29T19:48:23.343Z,97807.19
2023-03-29T19:51:13.053Z,97792.44
2023-03-29T19:54:02.724Z,97772.63
2023-03-29T19:56:53.535Z,97761.09
2023-03-29T19:59:43.105Z,97771.34
2023-03-29T20:02:32.084Z,97771.38
2023-03-29T20:05:21.638Z,97773.59
2023-03-29T20:08:11.023Z,97760.97
2023-03-29T20:11:03.158Z,97764.03
2023-03-29T20:13:53.839Z,97760.22
2023-03-29T20:16:44.058Z,97752.66
2023-03-29T20:19:36.585Z,97750.69
2023-03-29T20:22:26.176Z,97736.31
2023-03-29T20:25:15.535Z,97737.31
2023-03-29T20:28:04.945Z,97729.16
2023-03-29T20:30:55.812Z,97738.44
2023-03-29T20:33:44.809Z,97743.63
2023-03-29T20:36:33.955Z,97750.56
2023-03-29T20:39:25.707Z,97753.59
2023-03-29T20:42:15.183Z,97749.31
2023-03-29T20:45:04.173Z,97762.34
2023-03-29T20:48:02.161Z,97731.13
2023-03-29T20:50:51.193Z,97736.88
2023-03-29T20:53:42.809Z,97736.38
2023-03-29T20:56:33.264Z,97740.34
2023-03-29T20:59:24.078Z,97729.81
2023-03-29T21:02:14.868Z,97737.78
2023-03-29T21:05:06.045Z,97737.31
2023-03-29T21:07:55.670Z,97738.84
2023-03-29T21:10:47.814Z,97720.59
2023-03-29T21:13:37.436Z,97725.25
2023-03-29T21:16:29.124Z,97728.63
2023-03-29T21:19:18.798Z,97739.84
2023-03-29T21:22:09.406Z,97756.75
2023-03-29T21:24:58.355Z,97736.75
2023-03-29T21:27:47.327Z,97727.47
2023-03-29T21:30:36.297Z,97746.31
2023-03-29T21:33:25.368Z,97757.34
2023-03-29T21:36:14.424Z,97752.09
2023-03-29T21:39:05.217Z,97745.44
2023-03-29T21:41:54.545Z,97741.56
2023-03-29T21:44:44.372Z,97731.03
2023-03-29T21:47:33.347Z,97718.50
2023-03-29T21:50:22.787Z,97709.50
2023-03-29T21:53:11.780Z,97697.13
2023-03-29T21:56:02.711Z,97693.72
2023-03-29T21:58:51.929Z,97696.56
2023-03-29T22:01:41.136Z,97690.41
2023-03-29T22:04:36.978Z,97672.88
2023-03-29T22:07:26.414Z,97678.94
2023-03-29T22:10:15.628Z,97672.97
2023-03-29T22:13:05.983Z,97668.50
2023-03-29T22:16:00.444Z,97682.06
2023-03-29T22:18:50.125Z,97679.50
2023-03-29T22:21:39.120Z,97670.84
2023-03-29T22:24:28.901Z,97673.91
2023-03-29T22:27:17.702Z,97665.78
2023-03-29T22:30:10.246Z,97664.66
2023-03-29T22:32:59.086Z,97657.34
2023-03-29T22:35:48.320Z,97654.44
2023-03-29T22:38:37.134Z,97651.00
2023-03-29T22:41:27.821Z,97653.69
2023-03-29T22:44:16.787Z,97667.13
2023-03-29T22:47:07.052Z,97655.28
2023-03-29T22:49:55.887Z,97661.03
2023-03-29T22:52:44.668Z,97662.91
2023-03-29T22:55:33.748Z,97661.16
2023-03-29T22:58:22.813Z,97653.38
2023-03-29T23:01:11.950Z,97668.97
2023-03-29T23:04:02.238Z,97661.84
2023-03-29T23:06:52.000Z,97644.88
2023-03-29T23:09:40.986Z,97642.16
2023-03-29T23:12:30.350Z,97639.91
2023-03-29T23:15:22.852Z,97615.50
2023-03-29T23:18:15.289Z,97621.41
2023-03-29T23:21:06.531Z,97620.78
2023-03-29T23:23:55.665Z,97618.47
2023-03-29T23:26:49.041Z,97613.38
2023-03-29T23:29:38.802Z,97606.84
2023-03-29T23:32:27.627Z,97610.44
2023-03-29T23:35:16.941Z,97612.97
2023-03-29T23:38:08.511Z,97609.38
2023-03-29T23:41:00.338Z,97608.44
2023-03-29T23:43:50.608Z,97608.75
2023-03-29T23:46:40.900Z,97611.09
2023-03-29T23:49:30.100Z,97602.22
2023-03-29T23:52:18.809Z,97591.00
2023-03-29T23:55:14.355Z,97590.88
2023-03-29T23:58:03.162Z,97584.69
